Time;durP1;ratioP1;P1;durP2;ratioP2;P2;SDS_P1;SDS_P2;PMS_P1;PMS_P2;Temp;Humidity;BMP_temperature;BMP_pressure;BME280_temperature;BME280_humidity;BME280_pressure;Samples;Min_cycle;Max_cycle;Signal;HPM_P1;HPM_P2
2021/10/25 00:00:23;;;;;;;23.83;14.90;;;;;;;;;;5077040;28;20064;-63
2021/10/25 00:02:49;;;;;;;21.60;13.10;;;;;;;;;;5073742;28;20032;-63
2021/10/25 00:05:15;;;;;;;26.77;13.30;;;;;;;;;;5088377;28;20048;-63
2021/10/25 00:07:41;;;;;;;22.88;16.02;;;;;;;;;;5069231;28;20048;-63
2021/10/25 00:10:08;;;;;;;25.27;13.73;;;;;;;;;;5080576;28;20048;-63
2021/10/25 00:12:34;;;;;;;20.40;14.25;;;;;;;;;;5071852;28;20047;-63
2021/10/25 00:15:01;;;;;;;25.75;14.95;;;;;;;;;;5074151;28;20060;-63
2021/10/25 00:17:27;;;;;;;25.58;15.15;;;;;;;;;;5063891;28;20040;-63
2021/10/25 00:19:53;;;;;;;27.48;17.05;;;;;;;;;;5063251;28;20049;-63
2021/10/25 00:22:20;;;;;;;24.75;14.77;;;;;;;;;;5064240;28;20037;-63
2021/10/25 00:24:46;;;;;;;26.77;15.27;;;;;;;;;;5061917;28;20063;-64
2021/10/25 00:27:12;;;;;;;23.42;14.48;;;;;;;;;;5073480;28;20408;-63
2021/10/25 00:29:38;;;;;;;26.38;16.38;;;;;;;;;;5063785;28;20104;-63
2021/10/25 00:32:04;;;;;;;25.60;15.30;;;;;;;;;;5067391;28;20045;-63
2021/10/25 00:34:30;;;;;;;25.20;16.38;;;;;;;;;;5074281;28;20256;-63
2021/10/25 00:37:02;;;;;;;25.73;15.73;;;;;;;;;;5080869;28;20108;-63
2021/10/25 00:39:28;;;;;;;26.42;16.80;;;;;;;;;;5063464;28;20053;-63
2021/10/25 00:41:54;;;;;;;25.67;17.15;;;;;;;;;;5064790;28;20044;-63
2021/10/25 00:44:21;;;;;;;23.10;16.35;;;;;;;;;;5077211;28;20037;-63
2021/10/25 00:46:47;;;;;;;23.47;16.30;;;;;;;;;;5072514;28;20048;-63
2021/10/25 00:49:13;;;;;;;28.90;17.58;;;;;;;;;;5077430;28;20033;-63
2021/10/25 00:51:39;;;;;;;25.15;17.20;;;;;;;;;;5063989;28;20045;-63
2021/10/25 00:54:05;;;;;;;34.08;18.38;;;;;;;;;;5065904;28;20105;-63
2021/10/25 00:56:33;;;;;;;34.35;19.30;;;;;;;;;;5063162;28;20056;-63
2021/10/25 00:58:59;;;;;;;28.92;17.63;;;;;;;;;;5064182;28;20068;-63
2021/10/25 01:01:25;;;;;;;29.67;17.35;;;;;;;;;;5073166;28;20033;-63
2021/10/25 01:03:51;;;;;;;28.38;17.52;;;;;;;;;;5066867;28;20045;-63
2021/10/25 01:06:17;;;;;;;29.48;18.65;;;;;;;;;;5068236;28;20047;-63
2021/10/25 01:08:44;;;;;;;32.95;18.05;;;;;;;;;;5072997;28;20071;-63
2021/10/25 01:11:10;;;;;;;25.60;16.75;;;;;;;;;;5062906;28;20162;-63
2021/10/25 01:13:37;;;;;;;29.70;17.58;;;;;;;;;;5063132;28;20060;-63
2021/10/25 01:16:06;;;;;;;29.48;17.27;;;;;;;;;;5066328;28;20033;-63
2021/10/25 01:18:32;;;;;;;31.13;18.80;;;;;;;;;;5078154;28;20057;-63
2021/10/25 01:20:58;;;;;;;28.52;17.60;;;;;;;;;;5067037;28;20033;-63
2021/10/25 01:23:25;;;;;;;25.83;17.63;;;;;;;;;;5081996;28;20598;-63
2021/10/25 01:25:51;;;;;;;26.05;17.35;;;;;;;;;;5066635;28;20048;-63
2021/10/25 01:28:18;;;;;;;26.67;17.63;;;;;;;;;;5082480;28;20068;-63
2021/10/25 01:30:44;;;;;;;27.15;18.67;;;;;;;;;;5071674;28;20063;-63
2021/10/25 01:33:11;;;;;;;28.15;17.92;;;;;;;;;;5066688;28;20114;-62
2021/10/25 01:35:37;;;;;;;28.15;17.52;;;;;;;;;;5066751;28;20055;-63
2021/10/25 01:38:03;;;;;;;32.15;18.30;;;;;;;;;;5069604;28;20045;-63
2021/10/25 01:40:30;;;;;;;32.85;18.95;;;;;;;;;;5066112;28;20064;-63
2021/10/25 01:42:56;;;;;;;27.00;18.17;;;;;;;;;;5066706;28;20041;-63
2021/10/25 01:45:22;;;;;;;29.88;19.88;;;;;;;;;;5068606;28;20051;-63
2021/10/25 01:47:49;;;;;;;38.03;18.95;;;;;;;;;;5065655;28;20053;-63
2021/10/25 01:50:16;;;;;;;30.13;17.38;;;;;;;;;;5066315;28;20045;-63
2021/10/25 01:52:42;;;;;;;24.17;17.17;;;;;;;;;;5066578;28;20101;-63
2021/10/25 01:55:08;;;;;;;28.65;18.40;;;;;;;;;;5066479;28;20045;-63
2021/10/25 01:57:34;;;;;;;25.30;16.58;;;;;;;;;;5066998;28;20063;-63
2021/10/25 02:00:00;;;;;;;25.83;16.73;;;;;;;;;;5074994;28;20057;-63
2021/10/25 02:02:27;;;;;;;28.75;18.40;;;;;;;;;;5065877;28;20056;-63
2021/10/25 02:04:53;;;;;;;26.92;18.20;;;;;;;;;;5065867;28;20053;-63
2021/10/25 02:07:19;;;;;;;33.80;19.85;;;;;;;;;;5078854;28;20040;-63
2021/10/25 02:09:45;;;;;;;29.65;18.83;;;;;;;;;;5065834;28;20410;-63
2021/10/25 02:12:12;;;;;;;26.58;17.92;;;;;;;;;;5066403;28;20044;-63
2021/10/25 02:14:38;;;;;;;27.33;17.00;;;;;;;;;;5066096;28;20071;-62
2021/10/25 02:17:04;;;;;;;31.13;18.35;;;;;;;;;;5065752;28;20497;-63
2021/10/25 02:19:32;;;;;;;31.52;19.80;;;;;;;;;;5066152;28;20056;-62
2021/10/25 02:21:58;;;;;;;24.23;17.77;;;;;;;;;;5072937;28;20045;-62
2021/10/25 02:24:24;;;;;;;29.05;18.25;;;;;;;;;;5065145;28;20667;-63
2021/10/25 02:26:50;;;;;;;28.13;17.65;;;;;;;;;;5065804;28;20037;-63
2021/10/25 02:29:17;;;;;;;34.92;18.15;;;;;;;;;;5067366;28;20092;-63
2021/10/25 02:31:43;;;;;;;29.92;18.92;;;;;;;;;;5065056;28;20056;-63
2021/10/25 02:34:09;;;;;;;25.25;17.90;;;;;;;;;;5084144;28;20060;-62
2021/10/25 02:36:36;;;;;;;24.92;17.25;;;;;;;;;;5066849;28;20114;-63
2021/10/25 02:39:03;;;;;;;24.42;17.58;;;;;;;;;;5074348;28;20047;-63
2021/10/25 02:41:30;;;;;;;25.67;17.83;;;;;;;;;;5070515;28;20076;-63
2021/10/25 02:43:56;;;;;;;31.27;20.37;;;;;;;;;;5065266;28;20045;-63
2021/10/25 02:46:23;;;;;;;29.45;19.33;;;;;;;;;;5065363;28;20108;-63
2021/10/25 02:48:49;;;;;;;26.92;18.27;;;;;;;;;;5070302;28;20045;-63
2021/10/25 02:51:15;;;;;;;28.65;18.38;;;;;;;;;;5065392;28;20048;-63
2021/10/25 02:53:41;;;;;;;29.92;18.70;;;;;;;;;;5064032;28;20056;-63
2021/10/25 02:56:08;;;;;;;29.40;19.25;;;;;;;;;;5065100;28;20037;-62
2021/10/25 02:58:35;;;;;;;30.58;20.48;;;;;;;;;;5065276;28;20052;-62
2021/10/25 03:01:01;;;;;;;28.80;19.70;;;;;;;;;;5079789;28;20051;-62
2021/10/25 03:03:27;;;;;;;28.30;18.55;;;;;;;;;;5071875;28;20063;-62
2021/10/25 03:05:53;;;;;;;27.27;19.23;;;;;;;;;;5069057;28;20090;-62
2021/10/25 03:08:19;;;;;;;29.80;18.65;;;;;;;;;;5074933;28;20045;-64
2021/10/25 03:10:46;;;;;;;29.17;19.38;;;;;;;;;;5073208;28;20041;-63
2021/10/25 03:13:13;;;;;;;31.90;20.35;;;;;;;;;;5073457;28;20499;-63
2021/10/25 03:15:39;;;;;;;30.30;17.88;;;;;;;;;;5079098;28;20051;-63
2021/10/25 03:18:05;;;;;;;25.35;18.02;;;;;;;;;;5076099;28;20047;-63
2021/10/25 03:20:31;;;;;;;27.92;18.15;;;;;;;;;;5072837;28;20045;-63
2021/10/25 03:22:57;;;;;;;28.15;19.08;;;;;;;;;;5077417;28;20043;-63
2021/10/25 03:25:23;;;;;;;31.10;18.45;;;;;;;;;;5064705;28;20045;-63
2021/10/25 03:27:50;;;;;;;32.28;21.10;;;;;;;;;;5064643;28;20103;-62
2021/10/25 03:30:17;;;;;;;31.15;19.48;;;;;;;;;;5080414;28;20048;-62
2021/10/25 03:32:43;;;;;;;28.45;19.58;;;;;;;;;;5074816;28;20112;-62
2021/10/25 03:35:09;;;;;;;29.17;19.33;;;;;;;;;;5066423;28;20055;-62
2021/10/25 03:37:37;;;;;;;32.78;20.15;;;;;;;;;;5072342;28;20041;-62
2021/10/25 03:40:04;;;;;;;30.63;20.73;;;6.00;99.90;;;;;;5063874;28;20052;-62
2021/10/25 03:42:34;;;;;;;38.67;22.60;;;6.00;99.90;;;;;;5063116;28;20089;-62
2021/10/25 03:47:38;;;;;;;31.17;20.73;;;6.00;99.90;;;;;;5070875;28;20083;-62
2021/10/25 03:50:11;;;;;;;31.58;20.75;;;6.10;99.90;;;;;;5051440;28;20041;-62
2021/10/25 03:55:37;;;;;;;33.85;21.00;;;6.10;99.90;;;;;;5063564;28;20052;-62
2021/10/25 04:30:31;;;;;;;35.63;18.77;;;;;;;;;;5064008;28;20889;-62
2021/10/25 04:32:58;;;;;;;29.90;20.40;;;;;;;;;;5072447;28;20098;-62
2021/10/25 04:35:24;;;;;;;29.67;19.88;;;;;;;;;;5068015;28;20408;-62
2021/10/25 04:37:50;;;;;;;28.35;18.88;;;;;;;;;;5080394;28;20098;-62
2021/10/25 04:40:16;;;;;;;28.85;17.75;;;;;;;;;;5065604;28;20455;-63
2021/10/25 04:42:43;;;;;;;30.08;16.52;;;;;;;;;;5063448;28;20417;-62
2021/10/25 04:45:09;;;;;;;24.95;17.25;;;;;;;;;;5068086;28;20040;-62
2021/10/25 04:47:35;;;;;;;26.98;17.50;;;;;;;;;;5063759;28;20328;-62
2021/10/25 04:50:02;;;;;;;22.42;16.85;;;;;;;;;;5070076;28;20045;-62
2021/10/25 04:52:28;;;;;;;26.77;17.20;;;;;;;;;;5074478;28;20044;-62
2021/10/25 04:54:54;;;;;;;23.40;16.17;;;;;;;;;;5077666;28;20135;-62
2021/10/25 04:57:20;;;;;;;23.70;16.27;;;;;;;;;;5079873;28;20351;-62
2021/10/25 04:59:47;;;;;;;24.70;16.05;;;;;;;;;;5067642;28;20045;-62
2021/10/25 05:02:13;;;;;;;21.23;15.18;;;;;;;;;;5067222;28;20052;-62
2021/10/25 05:04:39;;;;;;;24.77;16.15;;;;;;;;;;5067039;28;20041;-62
2021/10/25 05:07:05;;;;;;;25.52;16.85;;;;;;;;;;5067487;28;20049;-62
2021/10/25 05:09:31;;;;;;;24.38;15.50;;;;;;;;;;5083818;28;20048;-63
2021/10/25 05:11:57;;;;;;;30.80;15.75;;;;;;;;;;5075159;28;20052;-63
2021/10/25 05:14:24;;;;;;;22.75;15.88;;;;;;;;;;5095689;28;20041;-62
2021/10/25 05:16:50;;;;;;;21.52;15.48;;;;;;;;;;5075034;28;20151;-62
2021/10/25 05:19:16;;;;;;;22.42;14.35;;;;;;;;;;5069216;28;20036;-62
2021/10/25 05:21:42;;;;;;;24.13;15.15;;;;;;;;;;5072706;28;20043;-63
2021/10/25 05:24:08;;;;;;;25.05;16.10;;;;;;;;;;5080119;28;20048;-62
2021/10/25 05:26:34;;;;;;;20.35;13.63;;;;;;;;;;5070087;28;20048;-62
2021/10/25 05:29:00;;;;;;;23.35;14.05;;;;;;;;;;5066925;28;20056;-63
2021/10/25 05:31:27;;;;;;;30.60;14.30;;;;;;;;;;5067276;28;20084;-63
2021/10/25 05:33:54;;;;;;;21.80;15.77;;;;;;;;;;5074520;28;20052;-62
2021/10/25 05:36:20;;;;;;;20.15;13.80;;;;;;;;;;5072978;28;20037;-63
2021/10/25 05:38:46;;;;;;;21.70;14.82;;;;;;;;;;5066925;28;20049;-63
2021/10/25 05:41:13;;;;;;;21.25;14.35;;;;;;;;;;5066307;28;20037;-62
2021/10/25 05:43:40;;;;;;;19.15;13.90;;;;;;;;;;5066825;28;20327;-62
2021/10/25 05:46:06;;;;;;;22.65;14.65;;;;;;;;;;5066515;28;20068;-62
2021/10/25 05:48:32;;;;;;;25.23;15.50;;;;;;;;;;5072041;28;20106;-64
2021/10/25 05:51:00;;;;;;;25.08;13.93;;;;;;;;;;5066332;28;20056;-62
2021/10/25 05:53:26;;;;;;;;;;;;;;;;;;5082795;28;20051;-62
2021/10/25 05:55:53;;;;;;;21.33;14.35;;;;;;;;;;5071154;28;20005;-62
2021/10/25 05:58:21;;;;;;;18.17;14.38;;;;;;;;;;5072760;28;20043;-62
2021/10/25 06:00:52;;;;;;;23.85;15.10;;;;;;;;;;5065749;28;20051;-62
2021/10/25 06:03:22;;;;;;;25.98;15.13;;;;;;;;;;5068124;28;20041;-63
2021/10/25 06:05:48;;;;;;;26.58;16.17;;;;;;;;;;5066145;28;20120;-62
2021/10/25 06:08:15;;;;;;;28.52;16.65;;;;;;;;;;5066209;28;20041;-62
2021/10/25 06:10:41;;;;;;;25.27;16.70;;;;;;;;;;5066044;28;20503;-62
2021/10/25 06:13:09;;;;;;;26.23;17.50;;;;;;;;;;5066034;28;20048;-62
2021/10/25 06:15:40;;;;;;;26.98;18.27;;;;;;;;;;5065932;28;20104;-62
2021/10/25 06:18:10;;;;;;;28.95;18.15;;;;;;;;;;5075394;28;20048;-62
2021/10/25 06:20:40;;;;;;;27.13;19.08;;;;;;;;;;5077375;28;20080;-62
2021/10/25 06:23:10;;;;;;;27.90;18.88;;;;;;;;;;5066226;28;20099;-62
2021/10/25 06:25:36;;;;;;;27.10;19.30;;;;;;;;;;5077137;28;20168;-62
2021/10/25 06:28:03;;;;;;;28.48;18.15;;;;;;;;;;5071780;28;20067;-62
2021/10/25 06:30:29;;;;;;;27.20;18.52;;;;;;;;;;5071603;28;20508;-62
2021/10/25 06:32:56;;;;;;;28.58;19.88;;;;;;;;;;5070968;28;20078;-62
2021/10/25 06:35:25;;;;;;;27.80;19.23;;;;;;;;;;5077202;28;20049;-62
2021/10/25 06:40:19;;;;;;;32.67;19.50;;;;;;;;;;5081115;28;20044;-62
2021/10/25 06:42:45;;;;;;;29.95;19.90;;;;;;;;;;5077732;28;20102;-62
2021/10/25 06:45:14;;;;;;;34.30;21.55;;;;;;;;;;5083595;28;20043;-62
2021/10/25 06:47:41;;;;;;;37.58;20.55;;;;;;;;;;5080207;28;20104;-61
2021/10/25 06:50:08;;;;;;;37.25;22.65;;;;;;;;;;5070696;28;20105;-62
2021/10/25 06:52:34;;;;;;;36.03;22.15;;;;;;;;;;5068042;28;20037;-62
2021/10/25 06:55:00;;;;;;;36.80;22.20;;;;;;;;;;5080862;28;20052;-62
2021/10/25 06:57:26;;;;;;;32.85;23.30;;;;;;;;;;5082852;28;20076;-62
2021/10/25 06:59:53;;;;;;;35.42;23.10;;;;;;;;;;5083757;28;20045;-62
2021/10/25 07:02:20;;;;;;;35.60;24.00;;;;;;;;;;5079859;28;20508;-61
2021/10/25 07:04:47;;;;;;;37.47;23.50;;;;;;;;;;5079374;28;20048;-62
2021/10/25 07:07:13;;;;;;;33.47;22.20;;;;;;;;;;5079154;28;20045;-62
2021/10/25 07:09:39;;;;;;;34.72;23.15;;;;;;;;;;5086447;28;20359;-62
2021/10/25 07:12:06;;;;;;;35.30;21.45;;;;;;;;;;5080774;28;20047;-62
2021/10/25 07:14:36;;;;;;;30.90;21.37;;;;;;;;;;5084090;28;20108;-62
2021/10/25 08:07:04;;;;;;;33.35;22.55;;;;;;;;;;5019877;28;20057;-62
2021/10/25 08:12:02;;;;;;;34.20;23.67;;;;;;;;;;5020256;28;20038;-62
2021/10/25 08:14:34;;;;;;;33.13;22.35;;;;;;;;;;5018471;28;20054;-62
2021/10/25 08:17:01;;;;;;;37.92;20.98;;;;;;;;;;5019770;28;20057;-62
2021/10/25 08:19:29;;;;;;;30.80;20.92;;;;;;;;;;5016332;28;20060;-62
2021/10/25 08:22:02;;;;;;;28.17;19.92;;;;;;;;;;5018306;28;20074;-62
2021/10/25 08:24:30;;;;;;;31.30;21.55;;;;;;;;;;5020121;28;20497;-62
2021/10/25 08:26:56;;;;;;;32.42;21.08;;;;;;;;;;5020387;28;20041;-69
2021/10/25 08:29:22;;;;;;;29.30;21.08;;;;;;;;;;5025284;28;20041;-67
2021/10/25 08:40:05;;;;;;;32.17;21.33;;;;;;;;;;4986987;28;20061;-68
2021/10/25 08:42:34;;;;;;;22.38;16.40;;;;;;;;;;4984115;28;20046;-68
2021/10/25 08:45:10;;;;;;;30.08;19.48;;;;;;;;;;4979927;28;20058;-68
2021/10/25 08:47:40;;;;;;;25.75;20.30;;;;;;;;;;4997051;28;20054;-67
2021/10/25 08:50:08;;;;;;;28.73;20.23;;;;;;;;;;4973646;28;20047;-67
2021/10/25 08:52:34;;;;;;;24.60;18.40;;;;;;;;;;4989678;28;20146;-68
2021/10/25 08:55:04;;;;;;;26.50;19.70;;;;;;;;;;4992799;28;20046;-68
2021/10/25 08:57:32;;;;;;;30.40;21.35;;;;;;;;;;4986342;28;20072;-68
2021/10/25 09:00:18;;;;;;;31.00;20.42;;;;;;;;;;5001365;28;20046;-68
2021/10/25 09:02:45;;;;;;;30.85;19.42;;;;;;;;;;4983038;28;20054;-68
2021/10/25 09:05:21;;;;;;;27.77;19.13;;;;;;;;;;4999771;28;20081;-68
2021/10/25 09:07:48;;;;;;;37.05;19.50;;;;;;;;;;4990335;28;20059;-68
2021/10/25 09:10:20;;;;;;;25.92;19.08;;;;;;;;;;5000385;28;20065;-68
2021/10/25 09:12:51;;;;;;;29.90;19.45;;;;;;;;;;5081043;28;20043;-68
2021/10/25 09:15:17;;;;;;;29.40;18.45;;;;;;;;;;5074512;28;20056;-68
2021/10/25 09:17:43;;;;;;;26.48;18.88;;;;;;;;;;5079967;28;20040;-66
2021/10/25 09:20:10;;;;;;;27.30;18.40;;;;;;;;;;5087055;28;20046;-67
2021/10/25 09:22:36;;;;;;;27.35;18.80;;;;;;;;;;5075269;28;20102;-66
2021/10/25 09:25:02;;;;;;;25.55;18.58;;;;;;;;;;5079252;28;20045;-67
2021/10/25 09:27:33;;;;;;;24.67;18.38;;;;;;;;;;5083301;28;20052;-67
2021/10/25 09:30:10;;;;;;;22.00;16.55;;;;;;;;;;5079498;28;20057;-69
2021/10/25 09:32:36;;;;;;;27.58;17.95;;;;;;;;;;5083974;28;20080;-68
2021/10/25 09:35:05;;;;;;;24.73;15.77;;;;;;;;;;5078312;28;20058;-73
2021/10/25 09:37:43;;;;;;;23.60;17.58;;;;;;;;;;5090369;28;20054;-77
2021/10/25 09:40:20;;;;;;;22.52;17.55;;;;;;;;;;5079823;28;20488;-74
2021/10/25 09:43:04;;;;;;;25.50;17.48;;;;;;;;;;5078694;28;20071;-73
2021/10/25 09:50:54;;;;;;;22.75;16.48;;;;;;;;;;5084233;28;20108;-66
2021/10/25 09:53:46;;;;;;;24.45;16.67;;;;;;;;;;5081802;28;20052;-66
2021/10/25 09:56:15;;;;;;;22.83;15.45;;;;;;;;;;5071717;28;20053;-67
2021/10/25 09:58:56;;;;;;;20.95;16.08;;;;;;;;;;5077302;28;20044;-66
2021/10/25 10:01:27;;;;;;;22.40;17.02;;;;;;;;;;5079801;28;20051;-66
2021/10/25 10:03:53;;;;;;;22.80;16.27;;;;;;;;;;5082766;28;20044;-67
2021/10/25 10:06:22;;;;;;;21.35;15.45;;;;;;;;;;5078764;28;20068;-65
2021/10/25 10:08:49;;;;;;;17.80;15.05;;;;;;;;;;5078911;28;20040;-68
2021/10/25 10:11:16;;;;;;;23.65;15.70;;;;;;;;;;5078424;28;20040;-68
2021/10/25 10:13:43;;;;;;;20.40;16.20;;;;;;;;;;5070625;28;20064;-68
2021/10/25 10:16:10;;;;;;;20.90;16.65;;;;;;;;;;5081991;28;20044;-71
2021/10/25 10:18:36;;;;;;;19.37;15.47;;;;;;;;;;5071491;28;20064;-69
2021/10/25 10:21:03;;;;;;;21.73;17.20;;;;;;;;;;5092261;28;20401;-65
2021/10/25 10:23:30;;;;;;;21.83;15.43;;;;;;;;;;5082405;28;20123;-66
2021/10/25 10:25:59;;;;;;;20.02;15.43;;;;;;;;;;5066842;28;20037;-67
2021/10/25 10:28:34;;;;;;;19.73;15.93;;;;;;;;;;5078040;28;20036;-65
2021/10/25 10:31:13;;;;;;;20.02;15.48;;;;;;;;;;5071438;28;20045;-70
2021/10/25 10:33:43;;;;;;;18.50;14.68;;;;;;;;;;5077069;28;20048;-67
2021/10/25 10:36:11;;;;;;;17.35;14.63;;;;;;;;;;5077526;28;20048;-66
2021/10/25 10:38:47;;;;;;;17.17;13.35;;;;;;;;;;5078952;28;20053;-65
2021/10/25 10:41:17;;;;;;;15.15;13.55;;;;;;;;;;5080422;28;20041;-67
2021/10/25 10:43:54;;;;;;;16.33;13.10;;;;;;;;;;5077586;28;20032;-73
2021/10/25 10:46:23;;;;;;;15.70;12.68;;;;;;;;;;5075697;28;20052;-75
2021/10/25 10:48:58;;;;;;;17.15;13.68;;;;;;;;;;5090160;28;20753;-72
2021/10/25 10:51:29;;;;;;;13.98;10.63;;;;;;;;;;5076221;28;20104;-73
2021/10/25 10:54:05;;;;;;;18.85;13.73;;;;;;;;;;5083185;28;20040;-74
2021/10/25 10:56:47;;;;;;;19.20;15.38;;;;;;;;;;5082687;28;20056;-65
2021/10/25 10:59:35;;;;;;;18.83;15.18;;;;;;;;;;5078881;28;20487;-63
2021/10/25 11:02:01;;;;;;;17.60;13.57;;;;;;;;;;5077733;28;20082;-64
2021/10/25 11:04:36;;;;;;;15.95;13.20;;;;;;;;;;5077233;28;20043;-66
2021/10/25 11:07:03;;;;;;;17.60;14.75;;;;;;;;;;5081828;28;20044;-64
2021/10/25 11:09:31;;;;;;;18.07;14.50;;;;;;;;;;5074827;28;20041;-65
2021/10/25 11:12:10;;;;;;;19.75;14.60;;;;;;;;;;5078068;28;20052;-66
2021/10/25 11:14:37;;;;;;;;;;;;;;;;;;5081073;28;20052;-62
2021/10/25 11:20:04;;;;;;;18.80;13.45;;;;;;;;;;5030713;28;20049;-75
2021/10/25 11:22:32;;;;;;;16.90;12.80;;;;;;;;;;5051583;28;20128;-73
2021/10/25 11:24:58;;;;;;;;;;;;;;;;;;5050222;28;20075;-62
2021/10/25 11:27:31;;;;;;;15.23;12.73;;;;;;;;;;5054939;28;19928;-65
2021/10/25 11:30:24;;;;;;;16.38;12.00;;;;;;;;;;5056295;28;20096;-66
2021/10/25 11:32:51;;;;;;;11.82;10.45;;;;;;;;;;5041954;28;20142;-63
2021/10/25 11:35:18;;;;;;;14.18;11.55;;;;;;;;;;5036074;28;20045;-64
2021/10/25 11:37:52;;;;;;;16.42;13.10;;;;;;;;;;5047409;28;20045;-62
2021/10/25 11:40:24;;;;;;;13.95;11.90;;;;;;;;;;5047090;28;20111;-63
2021/10/25 11:42:50;;;;;;;12.40;11.10;;;;;;;;;;5052800;28;20049;-63
2021/10/25 11:45:18;;;;;;;14.65;12.32;;;;;;;;;;5038221;28;20100;-66
2021/10/25 11:47:45;;;;;;;15.07;11.90;;;;;;;;;;5054968;28;20517;-62
2021/10/25 11:50:16;;;;;;;13.40;11.35;;;;;;;;;;5045394;28;20724;-62
2021/10/25 11:52:48;;;;;;;22.33;11.38;;;;;;;;;;5044264;28;20516;-63
2021/10/25 11:55:16;;;;;;;12.25;10.95;;;;;;;;;;5060550;28;20100;-62
2021/10/25 11:58:03;;;;;;;11.95;10.63;;;;;;;;;;5082166;28;20053;-62
2021/10/25 12:00:30;;;;;;;11.52;9.57;;;;;;;;;;5067736;28;20045;-62
2021/10/25 12:03:05;;;;;;;13.50;10.75;;;;;;;;;;5084053;28;20041;-64
2021/10/25 12:05:31;;;;;;;12.15;10.85;;;;;;;;;;5073035;28;20115;-64
2021/10/25 12:07:58;;;;;;;14.02;9.80;;;;;;;;;;5075972;28;20048;-65
2021/10/25 12:10:25;;;;;;;13.38;11.10;;;;;;;;;;5093689;28;20127;-63
2021/10/25 12:12:55;;;;;;;13.65;10.68;;;;;;;;;;5078687;28;20088;-67
2021/10/25 12:15:24;;;;;;;11.60;10.15;;;;;;;;;;5077630;28;20088;-62
2021/10/25 12:17:51;;;;;;;14.75;11.63;;;;;;;;;;5081487;28;20060;-63
2021/10/25 12:20:27;;;;;;;12.98;10.77;;;;;;;;;;5078458;28;20052;-63
2021/10/25 12:23:14;;;;;;;12.57;10.40;;;;;;;;;;5075421;28;20405;-66
2021/10/25 12:25:40;;;;;;;13.07;10.68;;;;;;;;;;5073470;28;20763;-63
2021/10/25 12:28:14;;;;;;;12.73;10.55;;;;;;;;;;5080047;28;20047;-69
2021/10/25 12:30:41;;;;;;;14.25;10.57;;;;;;;;;;5074295;28;20524;-64
2021/10/25 12:33:07;;;;;;;14.38;12.00;;;;;;;;;;5073898;28;20072;-65
2021/10/25 12:35:38;;;;;;;15.48;12.43;;;;;;;;;;5080946;28;20055;-65
2021/10/25 12:38:06;;;;;;;13.82;11.90;;;;;;;;;;5080840;28;20043;-70
2021/10/25 12:40:46;;;;;;;15.27;11.32;;;;;;;;;;5081317;28;20049;-65
2021/10/25 12:43:13;;;;;;;17.40;13.27;;;;;;;;;;5076697;28;20060;-68
2021/10/25 12:45:44;;;;;;;20.50;14.88;;;;;;;;;;5076790;28;20047;-66
2021/10/25 12:48:11;;;;;;;17.77;13.32;;;;;;;;;;5076423;28;20044;-66
2021/10/25 12:50:40;;;;;;;17.08;12.23;;;;;;;;;;5078967;28;20052;-67
2021/10/25 12:53:08;;;;;;;17.73;13.57;;;;;;;;;;5074466;28;20063;-67
2021/10/25 12:55:35;;;;;;;25.25;15.10;;;;;;;;;;5071069;28;20075;-68
2021/10/25 12:58:01;;;;;;;24.42;16.33;;;;;;;;;;5089360;28;20044;-68
2021/10/25 13:00:28;;;;;;;22.77;16.15;;;;;;;;;;5071482;28;20465;-85
2021/10/25 13:02:55;;;;;;;21.55;15.30;;;;;;;;;;5086653;28;20440;-75
2021/10/25 13:05:22;;;;;;;24.13;15.60;;;;;;;;;;5097925;28;20184;-74
2021/10/25 13:07:56;;;;;;;21.50;15.85;;;;;;;;;;5095302;28;20492;-67
2021/10/25 13:10:24;;;;;;;25.70;17.85;;;;;;;;;;5077777;28;20044;-75
2021/10/25 13:12:50;;;;;;;25.85;15.98;;;;;;;;;;5080464;28;20036;-65
2021/10/25 13:15:17;;;;;;;26.25;16.60;;;;;;;;;;5084694;28;20044;-70
2021/10/25 13:17:43;;;;;;;25.17;16.67;;;;;;;;;;5074191;28;20045;-68
2021/10/25 13:20:10;;;;;;;26.55;17.75;;;;;;;;;;5079363;28;20052;-71
2021/10/25 13:22:36;;;;;;;26.98;15.98;;;;;;;;;;5084286;28;20040;-71
2021/10/25 13:25:02;;;;;;;24.75;16.50;;;;;;;;;;5080945;28;20033;-70
2021/10/25 13:27:28;;;;;;;27.90;15.40;;;;;;;;;;5081626;28;20052;-62
2021/10/25 13:29:55;;;;;;;28.23;17.73;;;;;;;;;;5077725;28;20040;-62
2021/10/25 13:32:21;;;;;;;26.75;17.30;;;;;;;;;;5081933;28;20060;-63
2021/10/25 13:34:48;;;;;;;27.90;17.65;;;;;;;;;;5081295;28;20075;-62
2021/10/25 13:37:14;;;;;;;29.23;18.03;;;;;;;;;;5081969;28;20041;-60
2021/10/25 13:39:41;;;;;;;35.00;19.85;;;;;;;;;;5070487;28;20049;-61
2021/10/25 13:42:07;;;;;;;27.33;19.10;;;;;;;;;;5085590;28;20056;-61
2021/10/25 13:44:33;;;;;;;26.05;17.52;;;;;;;;;;5082166;28;20075;-62
2021/10/25 13:46:59;;;;;;;29.33;17.60;;;;;;;;;;5081109;28;20489;-61
2021/10/25 13:49:25;;;;;;;29.08;17.65;;;;;;;;;;5082281;28;20044;-63
2021/10/25 13:51:51;;;;;;;31.63;18.52;;;;;;;;;;5079078;28;20049;-62
2021/10/25 13:54:17;;;;;;;28.80;17.85;;;;;;;;;;5080882;28;20041;-71
2021/10/25 13:56:44;;;;;;;33.90;17.42;;;;;;;;;;5082391;28;20073;-62
2021/10/25 13:59:10;;;;;;;30.45;18.30;;;;;;;;;;5079747;28;20086;-74
2021/10/25 14:01:36;;;;;;;35.30;18.95;;;;;;;;;;5096084;28;20040;-62
2021/10/25 14:04:02;;;;;;;34.15;18.58;;;;;;;;;;5081693;28;20051;-63
2021/10/25 14:06:31;;;;;;;32.83;19.27;;;;;;;;;;5084258;28;20044;-64
2021/10/25 14:08:58;;;;;;;30.17;18.67;;;;;;;;;;5080792;28;21447;-63
2021/10/25 14:11:28;;;;;;;34.47;20.85;;;;;;;;;;5088795;28;20050;-62
2021/10/25 14:14:13;;;;;;;32.28;17.95;;;;;;;;;;5087244;28;20079;-62
2021/10/25 14:16:58;;;;;;;31.00;19.63;;;;;;;;;;5081430;28;20049;-62
2021/10/25 14:19:28;;;;;;;32.35;18.90;;;;;;;;;;5081498;28;20060;-62
2021/10/25 14:21:55;;;;;;;33.25;18.60;;;;;;;;;;5080339;28;20420;-62
2021/10/25 14:24:21;;;;;;;37.53;19.70;;;;;;;;;;5065628;28;20052;-62
2021/10/25 14:26:49;;;;;;;29.08;18.90;;;;;;;;;;5079266;28;20420;-62
2021/10/25 14:29:15;;;;;;;32.45;20.00;;;;;;;;;;5075050;28;20059;-62
2021/10/25 14:31:45;;;;;;;31.25;17.88;;;;;;;;;;5071271;28;20048;-62
2021/10/25 14:34:13;;;;;;;30.83;18.13;;;;;;;;;;5075231;28;20113;-64
2021/10/25 14:36:41;;;;;;;32.10;19.33;;;;;;;;;;5065914;28;20053;-62
2021/10/25 14:44:49;;;;;;;34.88;20.20;;;;;;;;;;5074930;28;20040;-62
2021/10/25 14:47:20;;;;;;;31.25;17.58;;;;;;;;;;5081598;28;20049;-62
2021/10/25 14:55:16;;;;;;;37.75;20.92;;;;;;;;;;5084263;28;20067;-62
2021/10/25 14:57:42;;;;;;;36.53;20.27;;;;;;;;;;5087242;28;20114;-62
2021/10/25 15:00:09;;;;;;;43.00;20.48;;;;;;;;;;5079166;28;20123;-62
2021/10/25 15:02:36;;;;;;;39.40;21.80;;;;;;;;;;5081290;28;20123;-62
2021/10/25 15:05:08;;;;;;;39.20;22.52;;;;;;;;;;5081096;28;20099;-66
2021/10/25 15:07:34;;;;;;;43.60;22.33;;;;;;;;;;5074088;28;20447;-67
2021/10/25 15:10:00;;;;;;;35.95;21.70;;;;;;;;;;5076303;28;20094;-66
2021/10/25 15:12:28;;;;;;;37.60;22.15;;;;;;;;;;5092980;28;20055;-67
2021/10/25 15:14:54;;;;;;;37.53;22.55;;;;;;;;;;5078121;28;20084;-67
2021/10/25 15:17:20;;;;;;;44.05;22.92;;;;;;;;;;5084257;28;20209;-66
2021/10/25 15:19:47;;;;;;;38.65;24.02;;;;;;;;;;5080749;28;20098;-67
2021/10/25 15:22:15;;;;;;;42.45;22.73;;;;;;;;;;5079318;28;20075;-67
2021/10/25 15:24:46;;;;;;;39.50;21.77;;;;;;;;;;5082440;28;20269;-68
2021/10/25 15:27:16;;;;;;;40.53;23.48;;;;;;;;;;5073259;28;20060;-69
2021/10/25 15:29:47;;;;;;;37.20;23.63;;;;;;;;;;5066879;28;20049;-66
2021/10/25 15:32:14;;;;;;;38.38;23.77;;;;;;;;;;5083565;28;20076;-65
2021/10/25 15:34:42;;;;;;;42.17;24.20;;;;;;;;;;5078731;28;20081;-68
2021/10/25 15:37:15;;;;;;;39.20;23.00;;;;;;;;;;5072238;28;20037;-63
2021/10/25 15:39:41;;;;;;;42.08;22.85;;;;;;;;;;5077115;28;20044;-63
2021/10/25 15:42:09;;;;;;;41.45;23.00;;;;;;;;;;5070033;28;20400;-78
2021/10/25 15:44:35;;;;;;;38.80;22.20;;;;;;;;;;5086496;28;20052;-65
2021/10/25 15:47:05;;;;;;;38.35;22.48;;;;;;;;;;5076387;28;20146;-63
2021/10/25 15:49:31;;;;;;;43.22;22.42;;;;;;;;;;5073773;28;20072;-69
2021/10/25 15:51:58;;;;;;;39.70;22.58;;;;;;;;;;5076637;28;20420;-62
2021/10/25 15:54:24;;;;;;;45.08;23.00;;;;;;;;;;5077303;28;20044;-65
2021/10/25 15:56:51;;;;;;;42.17;23.17;;;;;;;;;;5078570;28;20048;-65
2021/10/25 15:59:17;;;;;;;35.77;22.73;;;;;;;;;;5069409;28;20193;-62
2021/10/25 16:01:44;;;;;;;42.30;23.85;;;;;;;;;;5078631;28;20304;-62
2021/10/25 16:04:12;;;;;;;40.63;22.83;;;;;;;;;;5081478;28;20051;-63
2021/10/25 16:06:38;;;;;;;44.08;23.65;;;;;;;;;;5084241;28;20040;-65
2021/10/25 16:09:05;;;;;;;39.50;22.48;;;;;;;;;;5075337;28;20087;-65
2021/10/25 16:11:31;;;;;;;40.58;22.13;;;;;;;;;;5077251;28;20107;-69
2021/10/25 16:13:57;;;;;;;38.63;21.58;;;;;;;;;;5072231;28;20108;-69
2021/10/25 16:16:24;;;;;;;35.35;22.73;;;;;;;;;;5070571;28;20108;-62
2021/10/25 16:18:50;;;;;;;39.95;21.98;;;;;;;;;;5069294;28;20041;-62
2021/10/25 16:21:17;;;;;;;37.15;22.25;;;;;;;;;;5073295;28;20043;-62